createdAt,value
2023-01-22T00:01:12.819Z,100002.94
2023-01-22T00:03:41.557Z,100010.03
2023-01-22T00:06:09.889Z,100015.72
2023-01-22T00:08:37.738Z,100017.28
2023-01-22T00:11:05.557Z,100013.06
2023-01-22T00:13:32.980Z,100020.88
2023-01-22T00:16:01.029Z,100020.25
2023-01-22T00:18:28.739Z,100010.09
2023-01-22T00:20:56.177Z,100017.75
2023-01-22T00:23:24.155Z,100019.03
2023-01-22T00:26:16.049Z,100022.28
2023-01-22T00:28:47.677Z,100027.19
2023-01-22T00:31:16.355Z,100022.09
2023-01-22T00:33:45.490Z,100033.06
2023-01-22T00:36:18.571Z,100018.00
2023-01-22T00:38:48.953Z,100025.06
2023-01-22T00:41:17.817Z,100030.06
2023-01-22T00:43:45.835Z,100031.06
2023-01-22T00:46:15.567Z,100029.75
2023-01-22T00:48:49.480Z,100032.00
2023-01-22T00:51:17.761Z,100037.37
2023-01-22T00:53:45.721Z,100025.78
2023-01-22T00:56:14.085Z,100028.84
2023-01-22T00:58:42.083Z,100034.63
2023-01-22T01:01:10.047Z,100036.38
2023-01-22T01:03:37.791Z,100040.25
2023-01-22T01:06:11.480Z,100039.56
2023-01-22T01:08:42.285Z,100037.72
2023-01-22T01:11:30.303Z,100030.03
2023-01-22T01:13:57.837Z,100040.56
2023-01-22T01:16:29.844Z,100039.00
2023-01-22T01:19:07.147Z,100043.13
2023-01-22T01:21:35.258Z,100041.34
2023-01-22T01:24:02.934Z,100046.47
2023-01-22T01:26:30.503Z,100043.03
2023-01-22T01:28:58.313Z,100042.34
2023-01-22T01:31:26.388Z,100043.94
2023-01-22T01:33:57.400Z,100046.84
2023-01-22T01:36:47.317Z,100055.50
2023-01-22T01:39:13.220Z,100052.56
2023-01-22T01:41:40.996Z,100053.41
2023-01-22T01:44:14.586Z,100049.09
2023-01-22T01:47:05.882Z,100047.78
2023-01-22T01:49:49.494Z,100054.09
2023-01-22T01:52:17.779Z,100045.03
2023-01-22T01:54:49.169Z,100047.31
2023-01-22T01:57:19.481Z,100043.91
2023-01-22T01:59:48.078Z,100041.09
2023-01-22T02:02:16.175Z,100044.53
2023-01-22T02:04:43.928Z,100038.69
2023-01-22T02:07:11.922Z,100036.69
2023-01-22T02:09:39.424Z,100037.34
2023-01-22T02:12:07.374Z,100037.59
2023-01-22T02:14:39.563Z,100036.97
2023-01-22T02:17:11.700Z,100036.00
2023-01-22T02:19:40.019Z,100031.56
2023-01-22T02:22:19.864Z,100035.19
2023-01-22T02:24:47.776Z,100026.63
2023-01-22T02:27:15.592Z,100034.13
2023-01-22T02:29:43.130Z,100031.81
2023-01-22T02:32:11.055Z,100034.47
2023-01-22T02:34:39.050Z,100034.44
2023-01-22T02:37:06.855Z,100032.12
2023-01-22T02:39:34.341Z,100024.03
2023-01-22T02:42:04.090Z,100026.00
2023-01-22T02:44:31.759Z,100021.41
2023-01-22T02:46:59.486Z,100023.00
2023-01-22T02:49:27.592Z,100019.16
2023-01-22T02:51:55.014Z,100016.37
2023-01-22T02:54:23.086Z,100019.63
2023-01-22T02:56:50.931Z,100019.56
2023-01-22T02:59:18.686Z,100023.78
2023-01-22T03:01:47.506Z,100026.97
2023-01-22T03:04:15.771Z,100011.81
2023-01-22T03:06:45.501Z,100015.78
2023-01-22T03:09:14.883Z,100005.84
2023-01-22T03:11:45.125Z,100010.37
2023-01-22T03:14:33.017Z,100003.78
2023-01-22T03:17:19.460Z,100005.16
2023-01-22T03:20:05.625Z,100001.53
2023-01-22T03:22:33.504Z,99996.81
2023-01-22T03:25:01.553Z,99997.66
2023-01-22T03:27:30.988Z,100003.13
2023-01-22T03:29:58.940Z,100007.34
2023-01-22T03:32:26.979Z,100000.03
2023-01-22T03:34:55.489Z,100004.53
2023-01-22T03:37:23.787Z,100012.50
2023-01-22T03:39:51.633Z,100008.81
2023-01-22T03:42:19.661Z,100006.25
2023-01-22T03:44:48.143Z,100006.34
2023-01-22T03:47:17.564Z,100007.00
2023-01-22T03:49:44.908Z,99997.41
2023-01-22T03:52:12.921Z,100004.13
2023-01-22T03:54:40.735Z,99999.31
2023-01-22T03:57:08.598Z,99995.91
2023-01-22T03:59:36.625Z,100007.66
2023-01-22T04:02:04.030Z,100007.31
2023-01-22T04:04:34.307Z,100005.78
2023-01-22T04:07:02.737Z,100011.47
2023-01-22T04:09:30.154Z,100007.34
2023-01-22T04:11:58.116Z,100008.16
2023-01-22T04:14:26.849Z,100012.34
2023-01-22T04:16:55.009Z,100005.03
2023-01-22T04:19:23.404Z,100001.09
2023-01-22T04:21:51.495Z,100002.72
2023-01-22T04:24:19.067Z,100001.84
2023-01-22T04:26:47.050Z,99998.22
2023-01-22T04:29:15.363Z,99993.03
2023-01-22T04:31:43.517Z,99995.59
2023-01-22T04:34:12.124Z,100009.16
2023-01-22T04:36:39.657Z,100007.56
2023-01-22T04:39:07.160Z,100011.94
2023-01-22T04:41:34.928Z,100008.00
2023-01-22T04:44:02.861Z,100006.25
2023-01-22T04:46:31.701Z,100008.97
2023-01-22T04:49:00.047Z,100002.72
2023-01-22T04:51:27.501Z,100000.69
2023-01-22T04:53:55.183Z,100004.03
2023-01-22T04:56:23.446Z,100004.25
2023-01-22T04:58:51.118Z,100008.53
2023-01-22T05:01:18.699Z,100001.09
2023-01-22T05:03:46.738Z,100005.59
2023-01-22T05:06:15.036Z,99999.66
2023-01-22T05:08:42.769Z,100011.53
2023-01-22T05:11:11.047Z,100013.59
2023-01-22T05:13:39.134Z,100024.50
2023-01-22T05:16:06.864Z,100022.03
2023-01-22T05:18:35.887Z,100032.41
2023-01-22T05:21:03.519Z,100033.72
2023-01-22T05:23:31.519Z,100038.88
2023-01-22T05:25:59.297Z,100041.41
2023-01-22T05:28:27.005Z,100054.63
2023-01-22T05:30:56.077Z,100051.22
2023-01-22T05:33:24.226Z,100060.84
2023-01-22T05:35:59.292Z,100062.31
2023-01-22T05:38:28.818Z,100065.66
2023-01-22T05:40:56.752Z,100062.78
2023-01-22T05:43:24.320Z,100076.19
2023-01-22T05:45:53.047Z,100081.69
2023-01-22T05:48:21.666Z,100079.72
2023-01-22T05:50:49.319Z,100084.47
2023-01-22T05:53:17.235Z,100088.31
2023-01-22T05:55:44.918Z,100093.06
2023-01-22T05:58:12.653Z,100095.56
2023-01-22T06:00:42.925Z,100098.59
2023-01-22T06:03:10.828Z,100100.56
2023-01-22T06:05:39.074Z,100091.69
2023-01-22T06:08:07.065Z,100089.62
2023-01-22T06:10:35.743Z,100095.19
2023-01-22T06:13:03.864Z,100096.28
2023-01-22T06:15:31.357Z,100102.19
2023-01-22T06:18:01.786Z,100106.94
2023-01-22T06:20:29.312Z,100116.03
2023-01-22T06:22:56.959Z,100120.19
2023-01-22T06:25:26.967Z,100120.09
2023-01-22T06:27:55.432Z,100120.28
2023-01-22T06:30:23.319Z,100122.81
2023-01-22T06:32:54.669Z,100145.81
2023-01-22T06:35:22.130Z,100141.84
2023-01-22T06:37:50.236Z,100146.72
2023-01-22T06:40:18.541Z,100154.41
2023-01-22T06:42:46.402Z,100154.06
2023-01-22T06:45:14.023Z,100155.91
2023-01-22T06:47:44.673Z,100150.00
2023-01-22T06:50:13.401Z,100150.84
2023-01-22T06:52:41.221Z,100148.72
2023-01-22T06:55:09.304Z,100155.91
2023-01-22T06:57:38.579Z,100159.31
2023-01-22T07:00:07.521Z,100160.31
2023-01-22T07:02:35.295Z,100162.41
2023-01-22T07:05:02.928Z,100158.87
2023-01-22T07:07:30.433Z,100174.81
2023-01-22T07:09:58.271Z,100167.75
2023-01-22T07:12:25.862Z,100177.28
2023-01-22T07:14:53.382Z,100173.03
2023-01-22T07:17:21.273Z,100179.53
2023-01-22T07:19:48.949Z,100180.63
2023-01-22T07:22:16.586Z,100189.84
2023-01-22T07:24:44.346Z,100189.31
2023-01-22T07:27:11.964Z,100202.81
2023-01-22T07:29:39.408Z,100204.00
2023-01-22T07:32:07.156Z,100211.16
2023-01-22T07:34:34.803Z,100206.53
2023-01-22T07:37:03.938Z,100213.50
2023-01-22T07:39:31.699Z,100212.28
2023-01-22T07:42:01.961Z,100209.63
2023-01-22T07:44:30.757Z,100216.75
2023-01-22T07:46:58.812Z,100213.87
2023-01-22T07:49:26.234Z,100214.97
2023-01-22T07:51:53.778Z,100217.06
2023-01-22T07:54:21.881Z,100225.38
2023-01-22T07:56:49.583Z,100221.06
2023-01-22T07:59:17.408Z,100218.34
2023-01-22T08:01:45.501Z,100213.78
2023-01-22T08:04:13.535Z,100196.59
2023-01-22T08:06:40.936Z,100200.16
2023-01-22T08:09:08.487Z,100216.87
2023-01-22T08:11:36.350Z,100222.31
2023-01-22T08:14:03.852Z,100227.13
2023-01-22T08:16:31.719Z,100244.41
2023-01-22T08:18:59.541Z,100249.97
2023-01-22T08:21:27.305Z,100251.53
2023-01-22T08:23:54.889Z,100256.44
2023-01-22T08:26:22.595Z,100250.81
2023-01-22T08:28:50.213Z,100251.19
2023-01-22T08:31:27.323Z,100248.03
2023-01-22T08:33:58.745Z,100265.94
2023-01-22T08:36:26.663Z,100265.94
2023-01-22T08:38:54.300Z,100270.75
2023-01-22T08:41:22.915Z,100284.78
2023-01-22T08:43:52.123Z,100279.09
2023-01-22T08:46:19.718Z,100285.66
2023-01-22T08:48:48.867Z,100288.37
2023-01-22T08:51:16.774Z,100291.66
2023-01-22T08:53:44.775Z,100293.38
2023-01-22T08:56:12.626Z,100301.34
2023-01-22T08:58:40.010Z,100292.69
2023-01-22T09:01:07.802Z,100296.03
2023-01-22T09:03:35.643Z,100304.00
2023-01-22T09:06:03.262Z,100304.06
2023-01-22T09:08:31.532Z,100304.97
2023-01-22T09:10:59.405Z,100309.53
2023-01-22T09:13:27.015Z,100305.88
2023-01-22T09:15:58.466Z,100320.53
2023-01-22T09:18:26.664Z,100317.28
2023-01-22T09:20:54.123Z,100323.09
2023-01-22T09:23:22.307Z,100322.09
2023-01-22T09:25:50.147Z,100326.84
2023-01-22T09:28:17.718Z,100323.22
2023-01-22T09:30:45.436Z,100333.09
2023-01-22T09:33:13.165Z,100327.28
2023-01-22T09:35:40.580Z,100328.34
2023-01-22T09:38:11.002Z,100325.41
2023-01-22T09:40:53.355Z,100331.72
2023-01-22T09:43:34.432Z,100329.97
2023-01-22T09:46:05.432Z,100339.13
2023-01-22T09:48:41.028Z,100338.91
2023-01-22T09:51:13.833Z,100343.03
2023-01-22T09:53:51.605Z,100342.09
2023-01-22T09:56:27.027Z,100341.22
2023-01-22T09:58:55.875Z,100338.22
2023-01-22T10:01:23.962Z,100337.25
2023-01-22T10:03:59.935Z,100340.72
2023-01-22T10:06:29.964Z,100335.13
2023-01-22T10:09:08.507Z,100341.97
2023-01-22T10:11:37.934Z,100346.16
2023-01-22T10:14:14.378Z,100343.72
2023-01-22T10:16:42.100Z,100342.81
2023-01-22T10:19:42.959Z,100347.16
2023-01-22T10:22:22.522Z,100341.41
2023-01-22T10:24:51.852Z,100349.22
2023-01-22T10:27:31.619Z,100347.06
2023-01-22T10:30:14.844Z,100346.38
2023-01-22T10:32:42.266Z,100349.37
2023-01-22T10:35:13.101Z,100349.94
2023-01-22T10:37:48.420Z,100356.41
2023-01-22T10:40:34.221Z,100368.72
2023-01-22T10:43:16.273Z,100351.81
2023-01-22T10:45:55.273Z,100355.41
2023-01-22T10:48:23.392Z,100351.81
2023-01-22T10:51:14.481Z,100348.97
2023-01-22T10:53:48.744Z,100353.22
2023-01-22T10:56:26.124Z,100360.75
2023-01-22T10:58:54.954Z,100369.84
2023-01-22T11:01:48.149Z,100367.00
2023-01-22T11:04:26.976Z,100367.62
2023-01-22T11:07:07.520Z,100366.31
2023-01-22T11:09:59.540Z,100384.19
2023-01-22T11:12:30.668Z,100368.06
2023-01-22T11:15:23.021Z,100371.63
2023-01-22T11:17:51.793Z,100367.38
2023-01-22T11:20:25.226Z,100371.44
2023-01-22T11:23:11.500Z,100364.38
2023-01-22T11:25:45.727Z,100359.69
2023-01-22T11:28:41.696Z,100361.19
2023-01-22T11:31:16.604Z,100373.22
2023-01-22T11:33:56.677Z,100372.37
2023-01-22T11:36:29.349Z,100383.91
2023-01-22T11:39:01.063Z,100398.59
2023-01-22T11:41:28.455Z,100387.44
2023-01-22T11:44:02.117Z,100385.31
2023-01-22T11:46:38.965Z,100388.31
2023-01-22T11:49:31.564Z,100396.00
2023-01-22T11:52:26.768Z,100393.88
2023-01-22T11:55:24.138Z,100393.19
2023-01-22T11:58:33.595Z,100392.66
2023-01-22T12:01:17.417Z,100394.81
2023-01-22T12:03:58.272Z,100396.19
2023-01-22T12:07:11.852Z,100394.72
2023-01-22T12:09:54.787Z,100406.50
2023-01-22T12:12:22.129Z,100414.41
2023-01-22T12:15:25.547Z,100413.56
2023-01-22T12:18:24.737Z,100423.03
2023-01-22T12:21:07.170Z,100418.41
2023-01-22T12:24:09.041Z,100421.00
2023-01-22T12:26:43.411Z,100421.16
2023-01-22T12:29:29.413Z,100422.81
2023-01-22T12:32:05.017Z,100429.03
2023-01-22T12:34:37.836Z,100426.84
2023-01-22T12:37:06.488Z,100425.78
2023-01-22T12:40:17.685Z,100423.69
2023-01-22T12:42:58.749Z,100425.81
2023-01-22T12:45:29.112Z,100428.84
2023-01-22T12:48:34.284Z,100426.34
2023-01-22T12:51:01.937Z,100431.22
2023-01-22T12:53:34.900Z,100444.16
2023-01-22T12:56:07.574Z,100444.69
2023-01-22T12:58:37.803Z,100453.66
2023-01-22T13:01:11.700Z,100447.25
2023-01-22T13:03:41.090Z,100450.94
2023-01-22T13:06:30.548Z,100452.22
2023-01-22T13:08:58.407Z,100458.44
2023-01-22T13:11:34.593Z,100444.56
2023-01-22T13:14:18.453Z,100442.19
2023-01-22T13:16:57.754Z,100449.75
2023-01-22T13:19:29.459Z,100468.44
2023-01-22T13:22:01.423Z,100467.19
2023-01-22T13:24:29.128Z,100470.06
2023-01-22T13:27:00.472Z,100485.16
2023-01-22T13:29:34.343Z,100481.53
2023-01-22T13:32:15.336Z,100491.91
2023-01-22T13:34:42.880Z,100491.47
2023-01-22T13:37:38.715Z,100501.91
2023-01-22T13:40:14.800Z,100499.22
2023-01-22T13:42:45.257Z,100509.06
2023-01-22T13:45:22.263Z,100507.19
2023-01-22T13:47:53.799Z,100515.78
2023-01-22T13:50:23.275Z,100514.72
2023-01-22T13:52:51.317Z,100514.19
2023-01-22T13:55:23.744Z,100521.00
2023-01-22T13:57:53.407Z,100530.03
2023-01-22T14:00:22.542Z,100530.19
2023-01-22T14:02:50.922Z,100542.59
2023-01-22T14:05:21.363Z,100537.41
2023-01-22T14:07:49.596Z,100539.84
2023-01-22T14:10:23.234Z,100530.22
2023-01-22T14:13:00.488Z,100531.69
2023-01-22T14:15:28.446Z,100538.66
2023-01-22T14:18:22.343Z,100542.28
2023-01-22T14:20:50.195Z,100556.88
2023-01-22T14:23:17.595Z,100552.41
2023-01-22T14:25:47.485Z,100559.75
2023-01-22T14:28:16.228Z,100562.03
2023-01-22T14:30:43.814Z,100557.16
2023-01-22T14:33:23.238Z,100555.78
2023-01-22T14:35:52.815Z,100554.97
2023-01-22T14:38:20.355Z,100563.09
2023-01-22T14:40:49.009Z,100561.63
2023-01-22T14:43:17.404Z,100570.72
2023-01-22T14:45:45.924Z,100575.00
2023-01-22T14:48:18.974Z,100580.13
2023-01-22T14:50:48.008Z,100575.72
2023-01-22T14:53:16.570Z,100579.06
2023-01-22T14:55:45.379Z,100583.75
2023-01-22T14:58:13.258Z,100580.78
2023-01-22T15:00:40.866Z,100589.59
2023-01-22T15:03:08.383Z,100592.44
2023-01-22T15:05:36.570Z,100600.88
2023-01-22T15:08:04.160Z,100601.41
2023-01-22T15:10:32.310Z,100605.00
2023-01-22T15:13:00.054Z,100603.88
2023-01-22T15:15:28.480Z,100611.84
2023-01-22T15:17:57.232Z,100613.34
2023-01-22T15:20:25.337Z,100608.72
2023-01-22T15:22:52.945Z,100614.94
2023-01-22T15:25:20.502Z,100612.00
2023-01-22T15:27:51.225Z,100615.88
2023-01-22T15:30:19.577Z,100622.16
2023-01-22T15:32:47.189Z,100619.56
2023-01-22T15:35:15.244Z,100618.59
2023-01-22T15:37:42.693Z,100624.81
2023-01-22T15:40:11.005Z,100632.59
2023-01-22T15:42:38.740Z,100635.91
2023-01-22T15:45:07.013Z,100629.47
2023-01-22T15:47:35.644Z,100631.50
2023-01-22T15:50:03.983Z,100637.53
2023-01-22T15:52:31.888Z,100646.41
2023-01-22T15:54:59.458Z,100644.47
2023-01-22T15:57:27.763Z,100648.94
2023-01-22T15:59:55.343Z,100647.16
2023-01-22T16:02:22.919Z,100652.62
2023-01-22T16:04:50.824Z,100642.16
2023-01-22T16:07:18.304Z,100643.97
2023-01-22T16:09:46.015Z,100644.41
2023-01-22T16:12:13.962Z,100645.50
2023-01-22T16:14:41.515Z,100648.66
2023-01-22T16:17:09.859Z,100643.72
2023-01-22T16:19:39.573Z,100655.06
2023-01-22T16:22:07.696Z,100650.19
2023-01-22T16:24:35.522Z,100651.56
2023-01-22T16:27:04.058Z,100651.56
2023-01-22T16:29:32.179Z,100659.38
2023-01-22T16:31:59.675Z,100667.25
2023-01-22T16:34:27.499Z,100672.28
2023-01-22T16:36:55.810Z,100673.22
2023-01-22T16:39:23.918Z,100676.84
2023-01-22T16:41:52.127Z,100685.66
2023-01-22T16:44:26.440Z,100690.97
2023-01-22T16:46:57.606Z,100684.91
2023-01-22T16:49:28.632Z,100690.91
2023-01-22T16:52:21.510Z,100691.03
2023-01-22T16:54:49.503Z,100689.97
2023-01-22T16:57:19.298Z,100696.94
2023-01-22T16:59:47.053Z,100690.69
2023-01-22T17:02:16.028Z,100692.22
2023-01-22T17:04:44.783Z,100695.06
2023-01-22T17:07:27.357Z,100704.78
2023-01-22T17:10:00.556Z,100696.12
2023-01-22T17:12:28.125Z,100702.38
2023-01-22T17:14:55.708Z,100703.25
2023-01-22T17:17:23.620Z,100706.91
2023-01-22T17:19:51.134Z,100720.06
2023-01-22T17:22:18.800Z,100713.97
2023-01-22T17:24:47.725Z,100709.16
2023-01-22T17:27:18.483Z,100715.44
2023-01-22T17:29:46.194Z,100706.66
2023-01-22T17:32:14.147Z,100713.78
2023-01-22T17:34:42.103Z,100715.09
2023-01-22T17:37:11.247Z,100719.34
2023-01-22T17:39:39.440Z,100732.56
2023-01-22T17:42:06.858Z,100735.50
2023-01-22T17:44:34.995Z,100742.56
2023-01-22T17:47:03.607Z,100744.28
2023-01-22T17:49:32.577Z,100753.03
2023-01-22T17:52:00.142Z,100754.63
2023-01-22T17:54:28.317Z,100748.19
2023-01-22T17:56:56.225Z,100756.09
2023-01-22T17:59:24.443Z,100756.94
2023-01-22T18:01:52.690Z,100756.53
2023-01-22T18:04:20.754Z,100750.66
2023-01-22T18:06:48.217Z,100750.78
2023-01-22T18:09:18.309Z,100751.59
2023-01-22T18:11:46.272Z,100745.28
2023-01-22T18:14:22.135Z,100745.34
2023-01-22T18:16:50.473Z,100750.69
2023-01-22T18:19:18.860Z,100748.94
2023-01-22T18:21:46.673Z,100747.44
2023-01-22T18:24:14.755Z,100742.88
2023-01-22T18:26:42.974Z,100756.09
2023-01-22T18:29:14.825Z,100759.22
2023-01-22T18:31:42.803Z,100764.84
2023-01-22T18:34:11.080Z,100752.13
2023-01-22T18:36:39.359Z,100747.56
2023-01-22T18:39:09.954Z,100758.78
2023-01-22T18:41:39.422Z,100764.97
2023-01-22T18:44:08.568Z,100771.34
2023-01-22T18:46:41.333Z,100757.81
2023-01-22T18:49:16.363Z,100763.56
2023-01-22T18:51:45.746Z,100764.53
2023-01-22T18:54:13.740Z,100768.84
2023-01-22T18:56:44.028Z,100772.37
2023-01-22T18:59:14.294Z,100777.69
2023-01-22T19:01:50.037Z,100771.63
2023-01-22T19:04:21.689Z,100759.84
2023-01-22T19:06:51.942Z,100756.78
2023-01-22T19:09:20.415Z,100745.63
2023-01-22T19:11:49.188Z,100721.78
2023-01-22T19:14:20.347Z,100700.22
2023-01-22T19:16:51.477Z,100710.12
2023-01-22T19:19:20.568Z,100719.56
2023-01-22T19:21:52.822Z,100727.31
2023-01-22T19:24:26.880Z,100750.44
2023-01-22T19:26:55.746Z,100767.81
2023-01-22T19:29:25.292Z,100779.72
2023-01-22T19:31:54.267Z,100786.63
2023-01-22T19:34:26.065Z,100791.41
2023-01-22T19:36:56.380Z,100803.22
2023-01-22T19:39:25.522Z,100794.50
2023-01-22T19:41:54.218Z,100802.44
2023-01-22T19:44:22.245Z,100805.06
2023-01-22T19:46:50.183Z,100800.88
2023-01-22T19:49:17.780Z,100812.47
2023-01-22T19:51:45.901Z,100810.84
2023-01-22T19:54:13.950Z,100813.47
2023-01-22T19:56:45.493Z,100811.38
2023-01-22T19:59:19.370Z,100805.28
2023-01-22T20:01:48.660Z,100802.87
2023-01-22T20:04:35.717Z,100803.97
2023-01-22T20:07:06.045Z,100816.97
2023-01-22T20:09:35.327Z,100817.19
2023-01-22T20:12:03.370Z,100811.06
2023-01-22T20:14:33.629Z,100812.12
2023-01-22T20:17:02.453Z,100809.28
2023-01-22T20:19:30.590Z,100813.13
2023-01-22T20:21:59.637Z,100812.34
2023-01-22T20:24:28.238Z,100805.56
2023-01-22T20:26:56.961Z,100814.44
2023-01-22T20:29:25.003Z,100809.91
2023-01-22T20:31:53.107Z,100819.94
2023-01-22T20:34:21.112Z,100812.94
2023-01-22T20:36:48.773Z,100814.75
2023-01-22T20:39:16.680Z,100810.59
2023-01-22T20:41:45.640Z,100815.78
2023-01-22T20:44:14.110Z,100817.13
2023-01-22T20:46:45.347Z,100819.19
2023-01-22T20:49:13.192Z,100822.06
2023-01-22T20:51:42.292Z,100820.28
2023-01-22T20:54:10.552Z,100822.84
2023-01-22T20:56:38.662Z,100824.78
2023-01-22T20:59:17.359Z,100827.56
2023-01-22T21:01:45.807Z,100826.47
2023-01-22T21:04:13.920Z,100833.84
2023-01-22T21:06:42.491Z,100836.44
2023-01-22T21:09:10.998Z,100840.75
2023-01-22T21:11:40.574Z,100835.47
2023-01-22T21:14:09.348Z,100839.88
2023-01-22T21:16:40.081Z,100836.50
2023-01-22T21:19:16.744Z,100832.22
2023-01-22T21:21:45.030Z,100833.09
2023-01-22T21:24:13.369Z,100828.75
2023-01-22T21:26:40.832Z,100831.53
2023-01-22T21:29:13.617Z,100827.03
2023-01-22T21:31:42.308Z,100827.31
2023-01-22T21:34:10.867Z,100835.91
2023-01-22T21:36:40.675Z,100825.50
2023-01-22T21:39:12.802Z,100833.28
2023-01-22T21:41:43.292Z,100828.28
2023-01-22T21:44:34.715Z,100829.16
2023-01-22T21:47:03.212Z,100830.00
2023-01-22T21:49:30.990Z,100835.31
2023-01-22T21:52:01.156Z,100834.50
2023-01-22T21:54:33.779Z,100825.84
2023-01-22T21:57:01.031Z,100831.75
2023-01-22T21:59:28.756Z,100841.50
2023-01-22T22:01:56.319Z,100836.34
2023-01-22T22:04:26.388Z,100844.22
2023-01-22T22:06:54.564Z,100847.75
2023-01-22T22:09:25.693Z,100852.06
2023-01-22T22:11:58.184Z,100847.69
2023-01-22T22:14:25.887Z,100844.31
2023-01-22T22:16:53.944Z,100848.53
2023-01-22T22:19:22.723Z,100839.94
2023-01-22T22:21:51.186Z,100841.63
2023-01-22T22:24:20.390Z,100846.06
2023-01-22T22:26:47.915Z,100837.28
2023-01-22T22:29:15.416Z,100845.09
2023-01-22T22:31:43.389Z,100843.41
2023-01-22T22:34:10.905Z,100836.47
2023-01-22T22:36:38.418Z,100844.28
2023-01-22T22:39:06.624Z,100836.50
2023-01-22T22:41:36.164Z,100833.84
2023-01-22T22:44:04.674Z,100840.03
2023-01-22T22:46:35.028Z,100829.50
2023-01-22T22:49:03.344Z,100814.75
2023-01-22T22:51:34.431Z,100816.41
2023-01-22T22:54:07.816Z,100812.87
2023-01-22T22:56:35.372Z,100813.97
2023-01-22T22:59:04.115Z,100816.47
2023-01-22T23:01:33.231Z,100820.09
2023-01-22T23:04:01.353Z,100818.41
2023-01-22T23:06:32.317Z,100820.03
2023-01-22T23:09:09.741Z,100816.63
2023-01-22T23:11:38.692Z,100825.25
2023-01-22T23:14:06.419Z,100828.78
2023-01-22T23:16:36.977Z,100834.00
2023-01-22T23:19:08.278Z,100829.69
2023-01-22T23:21:36.539Z,100828.75
2023-01-22T23:24:04.366Z,100845.34
2023-01-22T23:26:32.080Z,100846.25
2023-01-22T23:29:02.179Z,100848.91
2023-01-22T23:31:32.064Z,100846.28
2023-01-22T23:34:01.337Z,100854.09
2023-01-22T23:36:30.668Z,100838.44
2023-01-22T23:38:58.587Z,100831.47
2023-01-22T23:41:26.775Z,100840.16
2023-01-22T23:43:54.215Z,100840.22
2023-01-22T23:46:26.782Z,100839.31
2023-01-22T23:48:56.177Z,100846.28
2023-01-22T23:51:23.958Z,100846.28
2023-01-22T23:53:52.335Z,100830.53
2023-01-22T23:56:26.961Z,100836.59
2023-01-22T23:58:55.805Z,100837.56
